sensor_id;sensor_type;location;lat;lon;timestamp;temperature;humidity
38167;DHT22;23980;51.902;12.832;2022-09-16T00:02:12;12.80;67.80
38167;DHT22;23980;51.902;12.832;2022-09-16T00:07:19;12.80;67.70
38167;DHT22;23980;51.902;12.832;2022-09-16T00:12:20;12.80;67.90
38167;DHT22;23980;51.902;12.832;2022-09-16T00:17:21;12.80;67.80
38167;DHT22;23980;51.902;12.832;2022-09-16T00:22:22;12.80;67.80
38167;DHT22;23980;51.902;12.832;2022-09-16T00:27:23;12.80;67.90
38167;DHT22;23980;51.902;12.832;2022-09-16T00:32:24;12.80;67.90
38167;DHT22;23980;51.902;12.832;2022-09-16T00:37:31;12.70;67.80
38167;DHT22;23980;51.902;12.832;2022-09-16T00:42:38;12.70;67.90
38167;DHT22;23980;51.902;12.832;2022-09-16T00:47:55;12.70;67.80
38167;DHT22;23980;51.902;12.832;2022-09-16T00:52:57;12.60;67.90
38167;DHT22;23980;51.902;12.832;2022-09-16T00:58:05;12.60;67.70
38167;DHT22;23980;51.902;12.832;2022-09-16T01:03:16;12.50;67.80
38167;DHT22;23980;51.902;12.832;2022-09-16T01:08:17;12.50;67.90
38167;DHT22;23980;51.902;12.832;2022-09-16T01:13:17;12.50;67.70
38167;DHT22;23980;51.902;12.832;2022-09-16T01:24:09;12.40;68.00
38167;DHT22;23980;51.902;12.832;2022-09-16T01:35:19;12.40;68.20
38167;DHT22;23980;51.902;12.832;2022-09-16T01:40:32;12.40;68.20
38167;DHT22;23980;51.902;12.832;2022-09-16T01:45:40;12.40;68.00
38167;DHT22;23980;51.902;12.832;2022-09-16T01:50:47;12.40;68.00
38167;DHT22;23980;51.902;12.832;2022-09-16T01:55:58;12.40;67.90
38167;DHT22;23980;51.902;12.832;2022-09-16T02:06:32;12.30;67.90
38167;DHT22;23980;51.902;12.832;2022-09-16T02:11:36;12.30;67.80
38167;DHT22;23980;51.902;12.832;2022-09-16T02:21:46;12.30;68.10
38167;DHT22;23980;51.902;12.832;2022-09-16T02:27:02;12.30;67.90
38167;DHT22;23980;51.902;12.832;2022-09-16T02:32:05;12.20;68.00
38167;DHT22;23980;51.902;12.832;2022-09-16T02:37:14;12.20;67.90
38167;DHT22;23980;51.902;12.832;2022-09-16T02:42:18;12.20;68.00
38167;DHT22;23980;51.902;12.832;2022-09-16T02:53:02;12.10;68.10
38167;DHT22;23980;51.902;12.832;2022-09-16T02:58:17;12.10;68.00
38167;DHT22;23980;51.902;12.832;2022-09-16T03:03:18;12.10;68.10
38167;DHT22;23980;51.902;12.832;2022-09-16T03:08:18;12.00;67.90
38167;DHT22;23980;51.902;12.832;2022-09-16T03:24:25;12.00;68.20
38167;DHT22;23980;51.902;12.832;2022-09-16T03:29:54;12.00;68.10
38167;DHT22;23980;51.902;12.832;2022-09-16T03:40:19;12.00;68.20
38167;DHT22;23980;51.902;12.832;2022-09-16T03:45:42;11.90;67.90
38167;DHT22;23980;51.902;12.832;2022-09-16T03:50:47;11.90;68.10
38167;DHT22;23980;51.902;12.832;2022-09-16T03:55:54;11.90;68.00
38167;DHT22;23980;51.902;12.832;2022-09-16T04:00:55;11.90;68.00
38167;DHT22;23980;51.902;12.832;2022-09-16T04:06:03;11.90;67.90
38167;DHT22;23980;51.902;12.832;2022-09-16T04:11:04;11.90;68.10
38167;DHT22;23980;51.902;12.832;2022-09-16T04:16:05;11.90;68.00
38167;DHT22;23980;51.902;12.832;2022-09-16T04:21:06;11.90;67.90
38167;DHT22;23980;51.902;12.832;2022-09-16T04:26:06;11.90;68.00
38167;DHT22;23980;51.902;12.832;2022-09-16T04:31:10;11.90;68.00
38167;DHT22;23980;51.902;12.832;2022-09-16T04:36:13;11.80;68.00
38167;DHT22;23980;51.902;12.832;2022-09-16T04:41:20;11.80;68.00
38167;DHT22;23980;51.902;12.832;2022-09-16T04:46:22;11.80;68.00
38167;DHT22;23980;51.902;12.832;2022-09-16T04:51:27;11.80;67.90
38167;DHT22;23980;51.902;12.832;2022-09-16T04:56:31;11.70;68.00
38167;DHT22;23980;51.902;12.832;2022-09-16T05:01:40;11.80;68.10
38167;DHT22;23980;51.902;12.832;2022-09-16T05:06:41;11.80;68.20
38167;DHT22;23980;51.902;12.832;2022-09-16T05:11:41;11.70;68.00
38167;DHT22;23980;51.902;12.832;2022-09-16T05:16:43;11.70;67.90
38167;DHT22;23980;51.902;12.832;2022-09-16T05:21:44;11.70;68.00
38167;DHT22;23980;51.902;12.832;2022-09-16T05:26:45;11.70;68.00
38167;DHT22;23980;51.902;12.832;2022-09-16T05:31:52;11.70;68.00
38167;DHT22;23980;51.902;12.832;2022-09-16T05:36:54;11.70;68.20
38167;DHT22;23980;51.902;12.832;2022-09-16T05:41:59;11.70;68.20
38167;DHT22;23980;51.902;12.832;2022-09-16T05:47:00;11.80;68.40
38167;DHT22;23980;51.902;12.832;2022-09-16T05:52:01;11.80;68.40
38167;DHT22;23980;51.902;12.832;2022-09-16T05:57:02;11.90;68.60
38167;DHT22;23980;51.902;12.832;2022-09-16T06:02:05;11.90;68.70
38167;DHT22;23980;51.902;12.832;2022-09-16T06:07:05;12.00;68.70
38167;DHT22;23980;51.902;12.832;2022-09-16T06:12:11;12.00;68.60
38167;DHT22;23980;51.902;12.832;2022-09-16T06:17:18;12.10;68.60
38167;DHT22;23980;51.902;12.832;2022-09-16T06:22:29;12.20;68.80
38167;DHT22;23980;51.902;12.832;2022-09-16T06:27:38;12.30;68.80
38167;DHT22;23980;51.902;12.832;2022-09-16T06:32:39;12.30;68.80
38167;DHT22;23980;51.902;12.832;2022-09-16T06:37:40;12.40;68.70
38167;DHT22;23980;51.902;12.832;2022-09-16T06:42:41;12.40;68.80
38167;DHT22;23980;51.902;12.832;2022-09-16T06:47:42;12.60;69.00
38167;DHT22;23980;51.902;12.832;2022-09-16T06:52:42;12.70;69.10
38167;DHT22;23980;51.902;12.832;2022-09-16T06:57:43;12.90;69.20
38167;DHT22;23980;51.902;12.832;2022-09-16T07:02:44;12.90;69.00
38167;DHT22;23980;51.902;12.832;2022-09-16T07:07:45;13.00;69.00
38167;DHT22;23980;51.902;12.832;2022-09-16T07:12:54;13.10;69.10
38167;DHT22;23980;51.902;12.832;2022-09-16T07:17:54;13.20;69.10
38167;DHT22;23980;51.902;12.832;2022-09-16T07:22:55;13.30;68.90
38167;DHT22;23980;51.902;12.832;2022-09-16T07:27:55;13.40;68.90
38167;DHT22;23980;51.902;12.832;2022-09-16T07:32:57;13.40;68.90
38167;DHT22;23980;51.902;12.832;2022-09-16T07:37:59;13.50;69.10
38167;DHT22;23980;51.902;12.832;2022-09-16T07:42:59;13.70;69.20
38167;DHT22;23980;51.902;12.832;2022-09-16T07:48:00;13.90;69.20
38167;DHT22;23980;51.902;12.832;2022-09-16T07:53:01;14.00;69.20
38167;DHT22;23980;51.902;12.832;2022-09-16T07:58:01;14.20;69.10
38167;DHT22;23980;51.902;12.832;2022-09-16T08:03:02;14.20;69.00
38167;DHT22;23980;51.902;12.832;2022-09-16T08:08:13;14.40;69.00
38167;DHT22;23980;51.902;12.832;2022-09-16T08:13:16;14.50;68.90
38167;DHT22;23980;51.902;12.832;2022-09-16T08:18:17;14.60;69.00
38167;DHT22;23980;51.902;12.832;2022-09-16T08:23:17;14.70;69.00
38167;DHT22;23980;51.902;12.832;2022-09-16T08:28:18;14.80;68.90
38167;DHT22;23980;51.902;12.832;2022-09-16T08:33:20;14.80;68.70
38167;DHT22;23980;51.902;12.832;2022-09-16T08:38:24;14.80;68.30
38167;DHT22;23980;51.902;12.832;2022-09-16T08:43:57;14.80;68.60
38167;DHT22;23980;51.902;12.832;2022-09-16T08:49:12;15.10;69.00
38167;DHT22;23980;51.902;12.832;2022-09-16T08:54:33;15.40;69.10
38167;DHT22;23980;51.902;12.832;2022-09-16T08:59:39;15.30;68.50
38167;DHT22;23980;51.902;12.832;2022-09-16T09:04:42;15.30;68.50
38167;DHT22;23980;51.902;12.832;2022-09-16T09:20:51;15.70;68.50
38167;DHT22;23980;51.902;12.832;2022-09-16T09:26:02;15.70;68.30
38167;DHT22;23980;51.902;12.832;2022-09-16T09:31:28;15.70;68.10
38167;DHT22;23980;51.902;12.832;2022-09-16T09:42:10;16.10;68.90
38167;DHT22;23980;51.902;12.832;2022-09-16T09:47:21;16.70;68.70
38167;DHT22;23980;51.902;12.832;2022-09-16T09:52:30;17.20;69.00
38167;DHT22;23980;51.902;12.832;2022-09-16T10:03:04;19.40;75.10
38167;DHT22;23980;51.902;12.832;2022-09-16T11:57:02;20.30;73.30
38167;DHT22;23980;51.902;12.832;2022-09-16T12:07:49;23.70;65.50
38167;DHT22;23980;51.902;12.832;2022-09-16T12:13:03;23.50;68.10
38167;DHT22;23980;51.902;12.832;2022-09-16T12:18:21;24.20;67.10
38167;DHT22;23980;51.902;12.832;2022-09-16T12:23:25;24.40;66.90
38167;DHT22;23980;51.902;12.832;2022-09-16T12:33:56;23.30;63.40
38167;DHT22;23980;51.902;12.832;2022-09-16T12:38:58;22.70;63.20
38167;DHT22;23980;51.902;12.832;2022-09-16T12:50:18;22.60;65.70
38167;DHT22;23980;51.902;12.832;2022-09-16T13:05:53;20.40;61.90
38167;DHT22;23980;51.902;12.832;2022-09-16T13:11:13;20.30;64.00
38167;DHT22;23980;51.902;12.832;2022-09-16T13:16:32;21.20;67.10
38167;DHT22;23980;51.902;12.832;2022-09-16T13:21:42;21.90;67.80
38167;DHT22;23980;51.902;12.832;2022-09-16T13:26:47;22.60;67.40
38167;DHT22;23980;51.902;12.832;2022-09-16T13:31:48;22.90;67.10
38167;DHT22;23980;51.902;12.832;2022-09-16T13:36:49;23.20;66.30
38167;DHT22;23980;51.902;12.832;2022-09-16T13:41:50;23.10;65.10
38167;DHT22;23980;51.902;12.832;2022-09-16T13:46:52;23.10;64.50
38167;DHT22;23980;51.902;12.832;2022-09-16T13:51:52;23.40;65.00
38167;DHT22;23980;51.902;12.832;2022-09-16T13:57:07;23.40;64.30
38167;DHT22;23980;51.902;12.832;2022-09-16T14:17:42;22.10;62.00
38167;DHT22;23980;51.902;12.832;2022-09-16T14:22:44;21.80;61.60
38167;DHT22;23980;51.902;12.832;2022-09-16T14:27:46;21.50;61.40
38167;DHT22;23980;51.902;12.832;2022-09-16T14:32:54;21.40;62.00
38167;DHT22;23980;51.902;12.832;2022-09-16T14:38:02;21.30;61.60
38167;DHT22;23980;51.902;12.832;2022-09-16T14:43:18;21.10;61.60
38167;DHT22;23980;51.902;12.832;2022-09-16T14:48:39;20.80;62.30
38167;DHT22;23980;51.902;12.832;2022-09-16T14:53:56;20.90;62.50
38167;DHT22;23980;51.902;12.832;2022-09-16T14:58:57;21.00;62.50
38167;DHT22;23980;51.902;12.832;2022-09-16T15:04:23;21.20;62.60
38167;DHT22;23980;51.902;12.832;2022-09-16T15:14:40;21.50;62.00
38167;DHT22;23980;51.902;12.832;2022-09-16T15:19:41;21.50;61.90
38167;DHT22;23980;51.902;12.832;2022-09-16T15:24:43;21.30;61.10
38167;DHT22;23980;51.902;12.832;2022-09-16T15:29:58;21.20;61.20
38167;DHT22;23980;51.902;12.832;2022-09-16T15:35:20;21.20;60.70
38167;DHT22;23980;51.902;12.832;2022-09-16T15:40:29;20.90;60.40
38167;DHT22;23980;51.902;12.832;2022-09-16T15:45:31;20.40;59.90
38167;DHT22;23980;51.902;12.832;2022-09-16T15:50:45;20.10;60.10
38167;DHT22;23980;51.902;12.832;2022-09-16T15:55:55;19.70;60.10
38167;DHT22;23980;51.902;12.832;2022-09-16T16:06:57;19.40;61.20
38167;DHT22;23980;51.902;12.832;2022-09-16T16:17:18;18.90;59.30
38167;DHT22;23980;51.902;12.832;2022-09-16T16:22:22;18.70;59.80
38167;DHT22;23980;51.902;12.832;2022-09-16T16:27:32;18.50;59.70
38167;DHT22;23980;51.902;12.832;2022-09-16T16:32:39;18.20;59.50
38167;DHT22;23980;51.902;12.832;2022-09-16T16:37:40;17.90;59.30
38167;DHT22;23980;51.902;12.832;2022-09-16T16:42:41;17.80;59.50
38167;DHT22;23980;51.902;12.832;2022-09-16T16:47:42;17.60;59.60
38167;DHT22;23980;51.902;12.832;2022-09-16T16:52:43;17.30;59.50
38167;DHT22;23980;51.902;12.832;2022-09-16T16:57:44;17.20;59.60
38167;DHT22;23980;51.902;12.832;2022-09-16T17:02:47;17.00;59.50
38167;DHT22;23980;51.902;12.832;2022-09-16T17:07:55;16.80;59.60
38167;DHT22;23980;51.902;12.832;2022-09-16T17:12:55;16.60;59.70
38167;DHT22;23980;51.902;12.832;2022-09-16T17:17:56;16.40;59.80
38167;DHT22;23980;51.902;12.832;2022-09-16T17:22:57;16.30;59.80
38167;DHT22;23980;51.902;12.832;2022-09-16T17:28:02;16.10;60.00
38167;DHT22;23980;51.902;12.832;2022-09-16T17:33:03;15.90;60.00
38167;DHT22;23980;51.902;12.832;2022-09-16T17:38:03;15.70;60.00
38167;DHT22;23980;51.902;12.832;2022-09-16T17:43:05;15.60;60.00
38167;DHT22;23980;51.902;12.832;2022-09-16T17:48:05;15.40;60.00
38167;DHT22;23980;51.902;12.832;2022-09-16T17:53:06;15.30;60.20
38167;DHT22;23980;51.902;12.832;2022-09-16T17:58:06;15.20;60.20
38167;DHT22;23980;51.902;12.832;2022-09-16T18:03:13;15.10;60.20
38167;DHT22;23980;51.902;12.832;2022-09-16T18:08:17;15.00;60.20
38167;DHT22;23980;51.902;12.832;2022-09-16T18:13:17;14.90;60.20
38167;DHT22;23980;51.902;12.832;2022-09-16T18:18:18;14.70;60.20
38167;DHT22;23980;51.902;12.832;2022-09-16T18:23:20;14.60;60.30
38167;DHT22;23980;51.902;12.832;2022-09-16T18:28:22;14.60;60.30
38167;DHT22;23980;51.902;12.832;2022-09-16T18:33:23;14.40;60.30
38167;DHT22;23980;51.902;12.832;2022-09-16T18:38:23;14.40;60.30
38167;DHT22;23980;51.902;12.832;2022-09-16T18:43:24;14.30;60.40
38167;DHT22;23980;51.902;12.832;2022-09-16T18:48:30;14.20;60.40
38167;DHT22;23980;51.902;12.832;2022-09-16T18:53:31;14.10;60.50
38167;DHT22;23980;51.902;12.832;2022-09-16T18:58:44;14.10;60.40
38167;DHT22;23980;51.902;12.832;2022-09-16T19:03:45;14.00;60.60
38167;DHT22;23980;51.902;12.832;2022-09-16T19:08:54;13.90;60.50
38167;DHT22;23980;51.902;12.832;2022-09-16T19:13:55;13.80;60.60
38167;DHT22;23980;51.902;12.832;2022-09-16T19:18:56;13.80;60.50
38167;DHT22;23980;51.902;12.832;2022-09-16T19:24:03;13.70;60.50
38167;DHT22;23980;51.902;12.832;2022-09-16T19:29:06;13.60;60.60
38167;DHT22;23980;51.902;12.832;2022-09-16T19:34:15;13.60;60.60
38167;DHT22;23980;51.902;12.832;2022-09-16T19:39:16;13.60;60.70
38167;DHT22;23980;51.902;12.832;2022-09-16T19:44:17;13.50;60.70
38167;DHT22;23980;51.902;12.832;2022-09-16T19:49:21;13.50;60.70
38167;DHT22;23980;51.902;12.832;2022-09-16T19:54:28;13.40;60.70
38167;DHT22;23980;51.902;12.832;2022-09-16T19:59:29;13.40;60.80
38167;DHT22;23980;51.902;12.832;2022-09-16T20:04:31;13.40;60.70
38167;DHT22;23980;51.902;12.832;2022-09-16T20:09:33;13.30;60.70
38167;DHT22;23980;51.902;12.832;2022-09-16T20:14:39;13.30;60.80
38167;DHT22;23980;51.902;12.832;2022-09-16T20:19:48;13.30;60.90
38167;DHT22;23980;51.902;12.832;2022-09-16T20:24:50;13.30;61.10
38167;DHT22;23980;51.902;12.832;2022-09-16T20:29:58;13.30;61.00
38167;DHT22;23980;51.902;12.832;2022-09-16T20:35:00;13.30;61.10
38167;DHT22;23980;51.902;12.832;2022-09-16T20:40:00;13.40;61.20
38167;DHT22;23980;51.902;12.832;2022-09-16T20:45:14;13.40;61.20
38167;DHT22;23980;51.902;12.832;2022-09-16T20:50:15;13.40;61.30
38167;DHT22;23980;51.902;12.832;2022-09-16T20:55:16;13.40;61.20
38167;DHT22;23980;51.902;12.832;2022-09-16T21:00:17;13.40;61.10
38167;DHT22;23980;51.902;12.832;2022-09-16T21:05:18;13.40;61.30
38167;DHT22;23980;51.902;12.832;2022-09-16T21:10:25;13.40;61.10
38167;DHT22;23980;51.902;12.832;2022-09-16T21:15:25;13.40;61.20
38167;DHT22;23980;51.902;12.832;2022-09-16T21:20:26;13.40;61.20
38167;DHT22;23980;51.902;12.832;2022-09-16T21:25:27;13.40;61.20
38167;DHT22;23980;51.902;12.832;2022-09-16T21:30:28;13.40;61.20
38167;DHT22;23980;51.902;12.832;2022-09-16T21:35:29;13.40;61.20
38167;DHT22;23980;51.902;12.832;2022-09-16T21:40:37;13.30;61.10
38167;DHT22;23980;51.902;12.832;2022-09-16T21:45:48;13.30;61.30
38167;DHT22;23980;51.902;12.832;2022-09-16T21:50:51;13.30;61.30
38167;DHT22;23980;51.902;12.832;2022-09-16T21:56:05;13.30;61.30
38167;DHT22;23980;51.902;12.832;2022-09-16T22:01:19;13.30;61.50
38167;DHT22;23980;51.902;12.832;2022-09-16T22:06:22;13.30;61.50
38167;DHT22;23980;51.902;12.832;2022-09-16T22:11:30;13.20;61.40
38167;DHT22;23980;51.902;12.832;2022-09-16T22:16:33;13.20;61.50
38167;DHT22;23980;51.902;12.832;2022-09-16T22:21:39;13.20;61.50
38167;DHT22;23980;51.902;12.832;2022-09-16T22:26:41;13.20;61.50
38167;DHT22;23980;51.902;12.832;2022-09-16T22:31:46;13.20;61.50
38167;DHT22;23980;51.902;12.832;2022-09-16T22:36:46;13.20;62.10
38167;DHT22;23980;51.902;12.832;2022-09-16T22:41:47;13.20;61.70
38167;DHT22;23980;51.902;12.832;2022-09-16T22:46:48;13.10;61.70
38167;DHT22;23980;51.902;12.832;2022-09-16T22:51:55;13.10;61.80
38167;DHT22;23980;51.902;12.832;2022-09-16T22:57:11;13.00;61.90
38167;DHT22;23980;51.902;12.832;2022-09-16T23:02:22;13.00;62.10
38167;DHT22;23980;51.902;12.832;2022-09-16T23:07:28;13.00;62.10
38167;DHT22;23980;51.902;12.832;2022-09-16T23:12:38;13.00;62.10
38167;DHT22;23980;51.902;12.832;2022-09-16T23:17:45;13.00;62.20
38167;DHT22;23980;51.902;12.832;2022-09-16T23:22:53;13.00;62.20
38167;DHT22;23980;51.902;12.832;2022-09-16T23:27:54;13.00;62.30
38167;DHT22;23980;51.902;12.832;2022-09-16T23:32:54;13.00;62.30
38167;DHT22;23980;51.902;12.832;2022-09-16T23:37:55;12.90;62.30
38167;DHT22;23980;51.902;12.832;2022-09-16T23:42:56;12.90;62.40
38167;DHT22;23980;51.902;12.832;2022-09-16T23:47:57;12.90;62.40
38167;DHT22;23980;51.902;12.832;2022-09-16T23:53:01;12.90;62.50
38167;DHT22;23980;51.902;12.832;2022-09-16T23:58:02;12.80;62.60
